sensor_id;sensor_type;location;lat;lon;timestamp;P1;durP1;ratioP1;P2;durP2;ratioP2
47009;SDS011;59230;54.164;-3.124;2022-08-19T00:01:12;29.30;;;6.28;;
47009;SDS011;59230;54.164;-3.124;2022-08-19T00:03:37;31.98;;;4.53;;
47009;SDS011;59230;54.164;-3.124;2022-08-19T00:06:03;31.40;;;4.40;;
47009;SDS011;59230;54.164;-3.124;2022-08-19T00:08:28;27.88;;;4.60;;
47009;SDS011;59230;54.164;-3.124;2022-08-19T00:10:54;41.05;;;5.35;;
47009;SDS011;59230;54.164;-3.124;2022-08-19T00:13:19;36.63;;;5.55;;
47009;SDS011;59230;54.164;-3.124;2022-08-19T00:15:45;33.08;;;4.55;;
47009;SDS011;59230;54.164;-3.124;2022-08-19T00:18:10;37.60;;;5.05;;
47009;SDS011;59230;54.164;-3.124;2022-08-19T00:20:36;42.28;;;5.05;;
47009;SDS011;59230;54.164;-3.124;2022-08-19T00:23:05;33.78;;;5.00;;
47009;SDS011;59230;54.164;-3.124;2022-08-19T00:25:30;33.80;;;5.20;;
47009;SDS011;59230;54.164;-3.124;2022-08-19T00:27:56;27.35;;;4.32;;
47009;SDS011;59230;54.164;-3.124;2022-08-19T00:30:21;30.80;;;4.68;;
47009;SDS011;59230;54.164;-3.124;2022-08-19T00:32:47;28.52;;;4.80;;
47009;SDS011;59230;54.164;-3.124;2022-08-19T00:35:12;27.70;;;4.28;;
47009;SDS011;59230;54.164;-3.124;2022-08-19T00:37:38;36.80;;;4.85;;
47009;SDS011;59230;54.164;-3.124;2022-08-19T00:40:08;25.90;;;4.38;;
47009;SDS011;59230;54.164;-3.124;2022-08-19T00:42:35;27.92;;;4.47;;
47009;SDS011;59230;54.164;-3.124;2022-08-19T00:45:00;35.72;;;4.32;;
47009;SDS011;59230;54.164;-3.124;2022-08-19T00:47:26;23.67;;;4.28;;
47009;SDS011;59230;54.164;-3.124;2022-08-19T00:49:53;23.98;;;4.70;;
47009;SDS011;59230;54.164;-3.124;2022-08-19T00:52:22;23.35;;;4.15;;
47009;SDS011;59230;54.164;-3.124;2022-08-19T00:54:54;23.15;;;4.20;;
47009;SDS011;59230;54.164;-3.124;2022-08-19T00:57:22;27.65;;;3.60;;
47009;SDS011;59230;54.164;-3.124;2022-08-19T00:59:52;29.30;;;4.00;;
47009;SDS011;59230;54.164;-3.124;2022-08-19T01:02:19;27.75;;;3.70;;
47009;SDS011;59230;54.164;-3.124;2022-08-19T01:04:45;32.25;;;4.20;;
47009;SDS011;59230;54.164;-3.124;2022-08-19T01:07:10;26.83;;;4.10;;
47009;SDS011;59230;54.164;-3.124;2022-08-19T01:09:37;23.92;;;4.40;;
47009;SDS011;59230;54.164;-3.124;2022-08-19T01:12:02;27.70;;;4.82;;
47009;SDS011;59230;54.164;-3.124;2022-08-19T01:14:28;26.33;;;4.22;;
47009;SDS011;59230;54.164;-3.124;2022-08-19T01:16:54;26.60;;;4.28;;
47009;SDS011;59230;54.164;-3.124;2022-08-19T01:19:26;23.65;;;4.93;;
47009;SDS011;59230;54.164;-3.124;2022-08-19T01:22:14;18.73;;;3.88;;
47009;SDS011;59230;54.164;-3.124;2022-08-19T01:24:42;29.90;;;5.47;;
47009;SDS011;59230;54.164;-3.124;2022-08-19T01:27:08;27.20;;;4.80;;
47009;SDS011;59230;54.164;-3.124;2022-08-19T01:29:34;31.27;;;4.90;;
47009;SDS011;59230;54.164;-3.124;2022-08-19T01:32:03;27.88;;;4.57;;
47009;SDS011;59230;54.164;-3.124;2022-08-19T01:34:28;22.80;;;4.15;;
47009;SDS011;59230;54.164;-3.124;2022-08-19T01:36:54;25.77;;;4.05;;
47009;SDS011;59230;54.164;-3.124;2022-08-19T01:39:20;24.75;;;4.00;;
47009;SDS011;59230;54.164;-3.124;2022-08-19T01:41:48;25.60;;;3.90;;
47009;SDS011;59230;54.164;-3.124;2022-08-19T01:44:14;28.88;;;4.50;;
47009;SDS011;59230;54.164;-3.124;2022-08-19T01:46:41;33.35;;;4.05;;
47009;SDS011;59230;54.164;-3.124;2022-08-19T01:49:07;31.08;;;3.85;;
47009;SDS011;59230;54.164;-3.124;2022-08-19T01:51:33;25.65;;;3.85;;
47009;SDS011;59230;54.164;-3.124;2022-08-19T01:53:59;36.65;;;4.75;;
47009;SDS011;59230;54.164;-3.124;2022-08-19T01:56:25;35.72;;;4.82;;
47009;SDS011;59230;54.164;-3.124;2022-08-19T01:58:54;26.10;;;3.60;;
47009;SDS011;59230;54.164;-3.124;2022-08-19T02:01:23;33.90;;;4.93;;
47009;SDS011;59230;54.164;-3.124;2022-08-19T02:03:49;34.00;;;4.40;;
47009;SDS011;59230;54.164;-3.124;2022-08-19T02:06:15;39.17;;;4.82;;
47009;SDS011;59230;54.164;-3.124;2022-08-19T02:08:42;39.35;;;4.68;;
47009;SDS011;59230;54.164;-3.124;2022-08-19T02:11:10;32.50;;;5.13;;
47009;SDS011;59230;54.164;-3.124;2022-08-19T02:13:53;32.08;;;4.50;;
47009;SDS011;59230;54.164;-3.124;2022-08-19T02:16:19;37.78;;;4.55;;
47009;SDS011;59230;54.164;-3.124;2022-08-19T02:18:46;32.10;;;4.20;;
47009;SDS011;59230;54.164;-3.124;2022-08-19T02:21:13;30.50;;;4.18;;
47009;SDS011;59230;54.164;-3.124;2022-08-19T02:23:40;34.17;;;4.35;;
47009;SDS011;59230;54.164;-3.124;2022-08-19T02:26:06;27.33;;;4.50;;
47009;SDS011;59230;54.164;-3.124;2022-08-19T02:28:32;31.27;;;4.90;;
47009;SDS011;59230;54.164;-3.124;2022-08-19T02:30:58;26.50;;;5.05;;
47009;SDS011;59230;54.164;-3.124;2022-08-19T02:33:25;29.67;;;4.60;;
47009;SDS011;59230;54.164;-3.124;2022-08-19T02:35:51;31.30;;;4.35;;
47009;SDS011;59230;54.164;-3.124;2022-08-19T02:38:17;34.10;;;4.35;;
47009;SDS011;59230;54.164;-3.124;2022-08-19T02:40:56;31.75;;;4.63;;
47009;SDS011;59230;54.164;-3.124;2022-08-19T02:43:23;39.92;;;4.68;;
47009;SDS011;59230;54.164;-3.124;2022-08-19T02:45:51;41.28;;;5.13;;
47009;SDS011;59230;54.164;-3.124;2022-08-19T02:48:17;37.15;;;4.65;;
47009;SDS011;59230;54.164;-3.124;2022-08-19T02:50:44;37.92;;;4.85;;
47009;SDS011;59230;54.164;-3.124;2022-08-19T02:53:10;35.85;;;4.55;;
47009;SDS011;59230;54.164;-3.124;2022-08-19T02:55:41;47.17;;;5.13;;
47009;SDS011;59230;54.164;-3.124;2022-08-19T02:58:09;43.70;;;5.80;;
47009;SDS011;59230;54.164;-3.124;2022-08-19T03:00:34;41.33;;;5.43;;
47009;SDS011;59230;54.164;-3.124;2022-08-19T03:03:00;34.53;;;4.85;;
47009;SDS011;59230;54.164;-3.124;2022-08-19T03:05:25;32.30;;;5.32;;
47009;SDS011;59230;54.164;-3.124;2022-08-19T03:07:51;34.58;;;4.50;;
47009;SDS011;59230;54.164;-3.124;2022-08-19T03:10:17;52.72;;;5.65;;
47009;SDS011;59230;54.164;-3.124;2022-08-19T03:12:43;42.35;;;4.95;;
47009;SDS011;59230;54.164;-3.124;2022-08-19T03:15:10;38.58;;;5.45;;
47009;SDS011;59230;54.164;-3.124;2022-08-19T03:17:35;35.08;;;5.35;;
47009;SDS011;59230;54.164;-3.124;2022-08-19T03:20:01;32.00;;;4.68;;
47009;SDS011;59230;54.164;-3.124;2022-08-19T03:22:27;36.13;;;5.70;;
47009;SDS011;59230;54.164;-3.124;2022-08-19T03:24:53;36.30;;;4.90;;
47009;SDS011;59230;54.164;-3.124;2022-08-19T03:27:19;37.00;;;4.68;;
47009;SDS011;59230;54.164;-3.124;2022-08-19T03:29:44;43.25;;;6.70;;
47009;SDS011;59230;54.164;-3.124;2022-08-19T03:32:10;31.65;;;4.32;;
47009;SDS011;59230;54.164;-3.124;2022-08-19T03:34:37;44.47;;;5.78;;
47009;SDS011;59230;54.164;-3.124;2022-08-19T03:37:07;49.97;;;5.80;;
47009;SDS011;59230;54.164;-3.124;2022-08-19T03:39:35;48.40;;;6.18;;
47009;SDS011;59230;54.164;-3.124;2022-08-19T03:42:01;51.80;;;5.85;;
47009;SDS011;59230;54.164;-3.124;2022-08-19T03:44:28;45.80;;;5.38;;
47009;SDS011;59230;54.164;-3.124;2022-08-19T03:46:56;38.83;;;5.80;;
47009;SDS011;59230;54.164;-3.124;2022-08-19T03:49:25;45.35;;;6.10;;
47009;SDS011;59230;54.164;-3.124;2022-08-19T03:51:52;38.33;;;5.28;;
47009;SDS011;59230;54.164;-3.124;2022-08-19T03:54:19;47.33;;;6.68;;
47009;SDS011;59230;54.164;-3.124;2022-08-19T03:56:48;41.53;;;5.53;;
47009;SDS011;59230;54.164;-3.124;2022-08-19T03:59:17;49.25;;;5.72;;
47009;SDS011;59230;54.164;-3.124;2022-08-19T04:01:44;49.40;;;6.88;;
47009;SDS011;59230;54.164;-3.124;2022-08-19T04:04:10;37.78;;;5.05;;
47009;SDS011;59230;54.164;-3.124;2022-08-19T04:06:36;40.47;;;5.97;;
47009;SDS011;59230;54.164;-3.124;2022-08-19T04:09:04;43.95;;;7.00;;
47009;SDS011;59230;54.164;-3.124;2022-08-19T04:11:31;44.63;;;5.35;;
47009;SDS011;59230;54.164;-3.124;2022-08-19T04:14:00;53.75;;;6.75;;
47009;SDS011;59230;54.164;-3.124;2022-08-19T04:16:26;48.92;;;6.25;;
47009;SDS011;59230;54.164;-3.124;2022-08-19T04:18:54;36.78;;;5.05;;
47009;SDS011;59230;54.164;-3.124;2022-08-19T04:21:21;51.17;;;5.60;;
47009;SDS011;59230;54.164;-3.124;2022-08-19T04:23:49;50.63;;;6.25;;
47009;SDS011;59230;54.164;-3.124;2022-08-19T04:26:19;50.47;;;5.90;;
47009;SDS011;59230;54.164;-3.124;2022-08-19T04:28:47;42.85;;;6.32;;
47009;SDS011;59230;54.164;-3.124;2022-08-19T04:31:17;46.88;;;6.38;;
47009;SDS011;59230;54.164;-3.124;2022-08-19T04:33:44;47.40;;;6.15;;
47009;SDS011;59230;54.164;-3.124;2022-08-19T04:36:17;40.30;;;5.38;;
47009;SDS011;59230;54.164;-3.124;2022-08-19T04:38:44;40.60;;;5.65;;
47009;SDS011;59230;54.164;-3.124;2022-08-19T04:41:09;38.40;;;5.57;;
47009;SDS011;59230;54.164;-3.124;2022-08-19T04:43:53;35.85;;;5.55;;
47009;SDS011;59230;54.164;-3.124;2022-08-19T04:46:19;37.88;;;5.25;;
47009;SDS011;59230;54.164;-3.124;2022-08-19T04:48:45;52.63;;;6.35;;
47009;SDS011;59230;54.164;-3.124;2022-08-19T04:51:11;43.80;;;5.50;;
47009;SDS011;59230;54.164;-3.124;2022-08-19T04:53:38;40.88;;;6.30;;
47009;SDS011;59230;54.164;-3.124;2022-08-19T04:56:07;52.63;;;6.25;;
47009;SDS011;59230;54.164;-3.124;2022-08-19T04:58:36;50.05;;;5.85;;
47009;SDS011;59230;54.164;-3.124;2022-08-19T05:01:03;49.05;;;6.28;;
47009;SDS011;59230;54.164;-3.124;2022-08-19T05:03:29;41.58;;;5.57;;
47009;SDS011;59230;54.164;-3.124;2022-08-19T05:05:58;55.90;;;6.93;;
47009;SDS011;59230;54.164;-3.124;2022-08-19T05:08:30;54.90;;;6.25;;
47009;SDS011;59230;54.164;-3.124;2022-08-19T05:10:55;41.00;;;5.50;;
47009;SDS011;59230;54.164;-3.124;2022-08-19T05:13:22;46.25;;;5.80;;
47009;SDS011;59230;54.164;-3.124;2022-08-19T05:15:55;46.50;;;7.00;;
47009;SDS011;59230;54.164;-3.124;2022-08-19T05:18:22;44.63;;;6.25;;
47009;SDS011;59230;54.164;-3.124;2022-08-19T05:21:07;47.38;;;6.63;;
47009;SDS011;59230;54.164;-3.124;2022-08-19T05:23:55;42.47;;;6.03;;
47009;SDS011;59230;54.164;-3.124;2022-08-19T05:26:22;39.63;;;5.97;;
47009;SDS011;59230;54.164;-3.124;2022-08-19T05:28:48;36.42;;;5.43;;
47009;SDS011;59230;54.164;-3.124;2022-08-19T05:31:13;45.25;;;5.75;;
47009;SDS011;59230;54.164;-3.124;2022-08-19T05:33:39;41.15;;;5.13;;
47009;SDS011;59230;54.164;-3.124;2022-08-19T05:36:05;32.90;;;5.55;;
47009;SDS011;59230;54.164;-3.124;2022-08-19T05:38:32;37.38;;;4.72;;
47009;SDS011;59230;54.164;-3.124;2022-08-19T05:40:58;41.78;;;5.10;;
47009;SDS011;59230;54.164;-3.124;2022-08-19T05:43:24;50.45;;;6.15;;
47009;SDS011;59230;54.164;-3.124;2022-08-19T05:45:52;40.17;;;5.07;;
47009;SDS011;59230;54.164;-3.124;2022-08-19T05:48:18;34.47;;;5.55;;
47009;SDS011;59230;54.164;-3.124;2022-08-19T05:50:45;38.88;;;5.05;;
47009;SDS011;59230;54.164;-3.124;2022-08-19T05:53:11;41.75;;;5.20;;
47009;SDS011;59230;54.164;-3.124;2022-08-19T05:55:38;29.52;;;4.22;;
47009;SDS011;59230;54.164;-3.124;2022-08-19T05:58:03;44.72;;;5.63;;
47009;SDS011;59230;54.164;-3.124;2022-08-19T06:00:30;37.03;;;4.47;;
47009;SDS011;59230;54.164;-3.124;2022-08-19T06:02:56;28.67;;;4.25;;
47009;SDS011;59230;54.164;-3.124;2022-08-19T06:05:24;36.33;;;4.85;;
47009;SDS011;59230;54.164;-3.124;2022-08-19T06:07:50;34.80;;;5.20;;
47009;SDS011;59230;54.164;-3.124;2022-08-19T06:10:15;40.25;;;4.63;;
47009;SDS011;59230;54.164;-3.124;2022-08-19T06:12:41;34.50;;;5.13;;
47009;SDS011;59230;54.164;-3.124;2022-08-19T06:15:07;34.42;;;5.00;;
47009;SDS011;59230;54.164;-3.124;2022-08-19T06:17:35;28.58;;;4.55;;
47009;SDS011;59230;54.164;-3.124;2022-08-19T06:20:01;29.45;;;5.03;;
47009;SDS011;59230;54.164;-3.124;2022-08-19T06:22:28;38.60;;;5.18;;
47009;SDS011;59230;54.164;-3.124;2022-08-19T06:24:54;35.75;;;4.72;;
47009;SDS011;59230;54.164;-3.124;2022-08-19T06:27:21;35.15;;;5.65;;
47009;SDS011;59230;54.164;-3.124;2022-08-19T06:29:46;33.20;;;4.18;;
47009;SDS011;59230;54.164;-3.124;2022-08-19T06:32:14;45.58;;;4.15;;
47009;SDS011;59230;54.164;-3.124;2022-08-19T06:34:41;39.55;;;5.00;;
47009;SDS011;59230;54.164;-3.124;2022-08-19T06:37:07;46.72;;;5.00;;
47009;SDS011;59230;54.164;-3.124;2022-08-19T06:39:36;27.60;;;4.20;;
47009;SDS011;59230;54.164;-3.124;2022-08-19T06:42:04;29.40;;;4.57;;
47009;SDS011;59230;54.164;-3.124;2022-08-19T06:44:33;30.60;;;4.72;;
47009;SDS011;59230;54.164;-3.124;2022-08-19T06:47:02;27.35;;;3.95;;
47009;SDS011;59230;54.164;-3.124;2022-08-19T06:49:28;28.20;;;4.07;;
47009;SDS011;59230;54.164;-3.124;2022-08-19T06:51:55;23.60;;;4.25;;
47009;SDS011;59230;54.164;-3.124;2022-08-19T06:54:22;34.25;;;4.57;;
47009;SDS011;59230;54.164;-3.124;2022-08-19T06:56:48;33.28;;;4.20;;
47009;SDS011;59230;54.164;-3.124;2022-08-19T06:59:20;30.98;;;4.47;;
47009;SDS011;59230;54.164;-3.124;2022-08-19T07:01:48;24.85;;;4.18;;
47009;SDS011;59230;54.164;-3.124;2022-08-19T07:04:16;22.75;;;3.90;;
47009;SDS011;59230;54.164;-3.124;2022-08-19T07:06:45;29.98;;;4.05;;
47009;SDS011;59230;54.164;-3.124;2022-08-19T07:09:13;24.05;;;3.60;;
47009;SDS011;59230;54.164;-3.124;2022-08-19T07:11:43;32.40;;;3.97;;
47009;SDS011;59230;54.164;-3.124;2022-08-19T07:14:10;26.00;;;4.05;;
47009;SDS011;59230;54.164;-3.124;2022-08-19T07:16:35;26.13;;;3.90;;
47009;SDS011;59230;54.164;-3.124;2022-08-19T07:19:01;29.25;;;4.00;;
47009;SDS011;59230;54.164;-3.124;2022-08-19T07:21:27;30.63;;;3.95;;
47009;SDS011;59230;54.164;-3.124;2022-08-19T07:23:53;33.35;;;4.38;;
47009;SDS011;59230;54.164;-3.124;2022-08-19T07:26:21;29.70;;;4.50;;
47009;SDS011;59230;54.164;-3.124;2022-08-19T07:28:49;29.38;;;4.00;;
47009;SDS011;59230;54.164;-3.124;2022-08-19T07:31:16;20.20;;;3.85;;
47009;SDS011;59230;54.164;-3.124;2022-08-19T07:33:43;32.65;;;3.88;;
47009;SDS011;59230;54.164;-3.124;2022-08-19T07:36:10;31.58;;;4.18;;
47009;SDS011;59230;54.164;-3.124;2022-08-19T07:38:37;36.60;;;5.05;;
47009;SDS011;59230;54.164;-3.124;2022-08-19T07:41:04;30.27;;;3.85;;
47009;SDS011;59230;54.164;-3.124;2022-08-19T07:43:30;35.58;;;4.93;;
47009;SDS011;59230;54.164;-3.124;2022-08-19T07:45:56;20.10;;;3.20;;
47009;SDS011;59230;54.164;-3.124;2022-08-19T07:48:23;27.17;;;3.90;;
47009;SDS011;59230;54.164;-3.124;2022-08-19T07:50:53;27.70;;;3.67;;
47009;SDS011;59230;54.164;-3.124;2022-08-19T07:53:23;21.38;;;3.65;;
47009;SDS011;59230;54.164;-3.124;2022-08-19T07:55:49;30.48;;;4.55;;
47009;SDS011;59230;54.164;-3.124;2022-08-19T07:58:18;30.23;;;4.15;;
47009;SDS011;59230;54.164;-3.124;2022-08-19T08:03:50;17.90;;;3.40;;
47009;SDS011;59230;54.164;-3.124;2022-08-19T08:06:35;30.67;;;4.65;;
47009;SDS011;59230;54.164;-3.124;2022-08-19T08:09:23;23.10;;;3.78;;
47009;SDS011;59230;54.164;-3.124;2022-08-19T08:11:52;23.35;;;4.18;;
47009;SDS011;59230;54.164;-3.124;2022-08-19T08:14:23;32.17;;;4.47;;
47009;SDS011;59230;54.164;-3.124;2022-08-19T08:16:57;21.90;;;3.55;;
47009;SDS011;59230;54.164;-3.124;2022-08-19T08:19:23;24.98;;;3.50;;
47009;SDS011;59230;54.164;-3.124;2022-08-19T08:21:50;21.90;;;3.35;;
47009;SDS011;59230;54.164;-3.124;2022-08-19T08:24:16;27.83;;;3.97;;
47009;SDS011;59230;54.164;-3.124;2022-08-19T08:26:42;19.02;;;3.10;;
47009;SDS011;59230;54.164;-3.124;2022-08-19T08:29:09;19.92;;;3.28;;
47009;SDS011;59230;54.164;-3.124;2022-08-19T08:31:38;26.55;;;4.30;;
47009;SDS011;59230;54.164;-3.124;2022-08-19T08:34:05;36.53;;;4.60;;
47009;SDS011;59230;54.164;-3.124;2022-08-19T08:36:30;30.25;;;3.90;;
47009;SDS011;59230;54.164;-3.124;2022-08-19T08:38:58;24.52;;;3.33;;
47009;SDS011;59230;54.164;-3.124;2022-08-19T08:44:02;24.35;;;4.13;;
47009;SDS011;59230;54.164;-3.124;2022-08-19T08:49:46;24.20;;;4.25;;
47009;SDS011;59230;54.164;-3.124;2022-08-19T08:51:59;31.92;;;3.53;;
47009;SDS011;59230;54.164;-3.124;2022-08-19T08:54:35;26.25;;;4.65;;
47009;SDS011;59230;54.164;-3.124;2022-08-19T08:57:05;20.30;;;3.28;;
47009;SDS011;59230;54.164;-3.124;2022-08-19T08:59:36;23.08;;;3.10;;
47009;SDS011;59230;54.164;-3.124;2022-08-19T09:02:03;23.73;;;3.58;;
47009;SDS011;59230;54.164;-3.124;2022-08-19T09:04:29;21.33;;;3.78;;
47009;SDS011;59230;54.164;-3.124;2022-08-19T09:09:41;25.90;;;3.65;;
47009;SDS011;59230;54.164;-3.124;2022-08-19T09:15:00;18.75;;;3.17;;
47009;SDS011;59230;54.164;-3.124;2022-08-19T09:17:29;16.05;;;2.92;;
47009;SDS011;59230;54.164;-3.124;2022-08-19T09:22:34;15.18;;;2.60;;
47009;SDS011;59230;54.164;-3.124;2022-08-19T09:25:00;15.13;;;2.90;;
47009;SDS011;59230;54.164;-3.124;2022-08-19T09:27:27;24.98;;;3.33;;
47009;SDS011;59230;54.164;-3.124;2022-08-19T09:29:53;26.15;;;4.05;;
47009;SDS011;59230;54.164;-3.124;2022-08-19T09:32:20;16.38;;;2.92;;
47009;SDS011;59230;54.164;-3.124;2022-08-19T09:34:46;16.58;;;2.47;;
47009;SDS011;59230;54.164;-3.124;2022-08-19T09:37:12;22.13;;;2.90;;
47009;SDS011;59230;54.164;-3.124;2022-08-19T09:39:38;20.27;;;3.35;;
47009;SDS011;59230;54.164;-3.124;2022-08-19T09:42:06;19.00;;;3.08;;
47009;SDS011;59230;54.164;-3.124;2022-08-19T09:44:36;15.55;;;2.92;;
47009;SDS011;59230;54.164;-3.124;2022-08-19T09:47:05;16.80;;;2.97;;
47009;SDS011;59230;54.164;-3.124;2022-08-19T09:49:32;18.00;;;2.90;;
47009;SDS011;59230;54.164;-3.124;2022-08-19T09:51:57;15.00;;;2.67;;
47009;SDS011;59230;54.164;-3.124;2022-08-19T09:54:23;15.95;;;3.30;;
47009;SDS011;59230;54.164;-3.124;2022-08-19T09:56:49;22.40;;;3.53;;
47009;SDS011;59230;54.164;-3.124;2022-08-19T09:59:15;13.30;;;2.80;;
47009;SDS011;59230;54.164;-3.124;2022-08-19T10:01:41;16.75;;;2.63;;
47009;SDS011;59230;54.164;-3.124;2022-08-19T10:04:06;15.38;;;3.00;;
47009;SDS011;59230;54.164;-3.124;2022-08-19T10:09:22;20.58;;;3.30;;
47009;SDS011;59230;54.164;-3.124;2022-08-19T10:11:47;13.90;;;2.58;;
47009;SDS011;59230;54.164;-3.124;2022-08-19T10:14:15;13.77;;;2.63;;
47009;SDS011;59230;54.164;-3.124;2022-08-19T10:16:41;18.23;;;2.58;;
47009;SDS011;59230;54.164;-3.124;2022-08-19T10:19:07;21.95;;;3.42;;
47009;SDS011;59230;54.164;-3.124;2022-08-19T10:21:34;14.35;;;2.65;;
47009;SDS011;59230;54.164;-3.124;2022-08-19T10:24:02;12.85;;;2.53;;
47009;SDS011;59230;54.164;-3.124;2022-08-19T10:26:30;14.70;;;3.25;;
47009;SDS011;59230;54.164;-3.124;2022-08-19T10:28:58;17.65;;;2.47;;
47009;SDS011;59230;54.164;-3.124;2022-08-19T10:31:25;17.40;;;2.55;;
47009;SDS011;59230;54.164;-3.124;2022-08-19T10:33:53;18.05;;;2.78;;
47009;SDS011;59230;54.164;-3.124;2022-08-19T10:36:23;13.65;;;2.67;;
47009;SDS011;59230;54.164;-3.124;2022-08-19T10:38:54;13.02;;;2.92;;
47009;SDS011;59230;54.164;-3.124;2022-08-19T10:41:24;15.30;;;2.88;;
47009;SDS011;59230;54.164;-3.124;2022-08-19T10:43:52;15.55;;;3.05;;
47009;SDS011;59230;54.164;-3.124;2022-08-19T10:46:19;16.80;;;2.90;;
47009;SDS011;59230;54.164;-3.124;2022-08-19T10:48:47;21.30;;;2.90;;
47009;SDS011;59230;54.164;-3.124;2022-08-19T10:51:12;14.73;;;2.58;;
47009;SDS011;59230;54.164;-3.124;2022-08-19T10:53:57;15.05;;;2.67;;
47009;SDS011;59230;54.164;-3.124;2022-08-19T10:56:23;16.58;;;3.00;;
47009;SDS011;59230;54.164;-3.124;2022-08-19T10:59:07;16.73;;;2.88;;
47009;SDS011;59230;54.164;-3.124;2022-08-19T11:01:33;14.15;;;2.75;;
47009;SDS011;59230;54.164;-3.124;2022-08-19T11:04:03;16.50;;;2.83;;
47009;SDS011;59230;54.164;-3.124;2022-08-19T11:06:31;15.65;;;3.53;;
47009;SDS011;59230;54.164;-3.124;2022-08-19T11:08:57;12.93;;;2.80;;
47009;SDS011;59230;54.164;-3.124;2022-08-19T11:11:22;11.57;;;2.33;;
47009;SDS011;59230;54.164;-3.124;2022-08-19T11:13:48;11.32;;;2.40;;
47009;SDS011;59230;54.164;-3.124;2022-08-19T11:16:19;14.65;;;2.63;;
47009;SDS011;59230;54.164;-3.124;2022-08-19T11:18:48;16.50;;;2.70;;
47009;SDS011;59230;54.164;-3.124;2022-08-19T11:21:19;18.40;;;2.85;;
47009;SDS011;59230;54.164;-3.124;2022-08-19T11:23:48;11.82;;;2.20;;
47009;SDS011;59230;54.164;-3.124;2022-08-19T11:26:15;16.52;;;2.30;;
47009;SDS011;59230;54.164;-3.124;2022-08-19T11:28:41;10.20;;;2.35;;
47009;SDS011;59230;54.164;-3.124;2022-08-19T11:31:11;19.88;;;2.58;;
47009;SDS011;59230;54.164;-3.124;2022-08-19T11:33:42;12.70;;;2.50;;
47009;SDS011;59230;54.164;-3.124;2022-08-19T11:36:08;13.60;;;2.47;;
47009;SDS011;59230;54.164;-3.124;2022-08-19T11:38:34;12.95;;;2.20;;
47009;SDS011;59230;54.164;-3.124;2022-08-19T11:41:01;12.55;;;2.30;;
47009;SDS011;59230;54.164;-3.124;2022-08-19T11:43:29;11.93;;;2.20;;
47009;SDS011;59230;54.164;-3.124;2022-08-19T11:45:56;14.30;;;2.08;;
47009;SDS011;59230;54.164;-3.124;2022-08-19T11:48:22;10.65;;;2.00;;
47009;SDS011;59230;54.164;-3.124;2022-08-19T11:50:49;12.38;;;2.08;;
47009;SDS011;59230;54.164;-3.124;2022-08-19T11:53:16;15.05;;;2.85;;
47009;SDS011;59230;54.164;-3.124;2022-08-19T11:55:43;15.95;;;2.25;;
47009;SDS011;59230;54.164;-3.124;2022-08-19T11:58:10;14.02;;;2.13;;
47009;SDS011;59230;54.164;-3.124;2022-08-19T12:00:36;9.23;;;1.50;;
47009;SDS011;59230;54.164;-3.124;2022-08-19T12:03:03;8.50;;;1.95;;
47009;SDS011;59230;54.164;-3.124;2022-08-19T12:05:28;10.20;;;2.20;;
47009;SDS011;59230;54.164;-3.124;2022-08-19T12:07:54;8.50;;;1.92;;
47009;SDS011;59230;54.164;-3.124;2022-08-19T12:10:20;6.32;;;1.40;;
47009;SDS011;59230;54.164;-3.124;2022-08-19T12:12:46;11.82;;;2.25;;
47009;SDS011;59230;54.164;-3.124;2022-08-19T12:15:12;15.50;;;2.40;;
47009;SDS011;59230;54.164;-3.124;2022-08-19T12:17:39;12.00;;;2.53;;
47009;SDS011;59230;54.164;-3.124;2022-08-19T12:20:07;13.95;;;2.13;;
47009;SDS011;59230;54.164;-3.124;2022-08-19T12:22:34;11.68;;;1.80;;
47009;SDS011;59230;54.164;-3.124;2022-08-19T12:25:00;13.60;;;2.10;;
47009;SDS011;59230;54.164;-3.124;2022-08-19T12:27:26;14.00;;;2.17;;
47009;SDS011;59230;54.164;-3.124;2022-08-19T12:29:51;17.40;;;2.50;;
47009;SDS011;59230;54.164;-3.124;2022-08-19T12:32:17;9.75;;;2.10;;
47009;SDS011;59230;54.164;-3.124;2022-08-19T12:34:42;12.02;;;2.67;;
47009;SDS011;59230;54.164;-3.124;2022-08-19T12:37:08;12.15;;;2.28;;
47009;SDS011;59230;54.164;-3.124;2022-08-19T12:39:34;9.23;;;1.90;;
47009;SDS011;59230;54.164;-3.124;2022-08-19T12:42:01;9.45;;;1.85;;
47009;SDS011;59230;54.164;-3.124;2022-08-19T12:44:27;12.63;;;1.85;;
47009;SDS011;59230;54.164;-3.124;2022-08-19T12:46:52;11.85;;;2.15;;
47009;SDS011;59230;54.164;-3.124;2022-08-19T12:49:17;12.80;;;2.10;;
47009;SDS011;59230;54.164;-3.124;2022-08-19T12:51:43;12.07;;;1.92;;
47009;SDS011;59230;54.164;-3.124;2022-08-19T12:54:08;12.00;;;1.95;;
47009;SDS011;59230;54.164;-3.124;2022-08-19T12:56:34;10.13;;;1.98;;
47009;SDS011;59230;54.164;-3.124;2022-08-19T12:59:02;10.80;;;2.45;;
47009;SDS011;59230;54.164;-3.124;2022-08-19T13:01:28;10.77;;;2.00;;
47009;SDS011;59230;54.164;-3.124;2022-08-19T13:03:57;12.77;;;2.53;;
47009;SDS011;59230;54.164;-3.124;2022-08-19T13:06:23;11.00;;;2.30;;
47009;SDS011;59230;54.164;-3.124;2022-08-19T13:08:48;13.27;;;3.03;;
47009;SDS011;59230;54.164;-3.124;2022-08-19T13:11:15;12.43;;;3.15;;
47009;SDS011;59230;54.164;-3.124;2022-08-19T13:13:43;14.88;;;2.47;;
47009;SDS011;59230;54.164;-3.124;2022-08-19T13:16:11;19.30;;;2.28;;
47009;SDS011;59230;54.164;-3.124;2022-08-19T13:18:37;9.68;;;2.33;;
47009;SDS011;59230;54.164;-3.124;2022-08-19T13:21:04;14.25;;;2.33;;
47009;SDS011;59230;54.164;-3.124;2022-08-19T13:23:30;10.38;;;1.88;;
47009;SDS011;59230;54.164;-3.124;2022-08-19T13:25:57;10.43;;;2.42;;
47009;SDS011;59230;54.164;-3.124;2022-08-19T13:28:23;17.95;;;3.03;;
47009;SDS011;59230;54.164;-3.124;2022-08-19T13:30:49;12.13;;;2.25;;
47009;SDS011;59230;54.164;-3.124;2022-08-19T13:33:33;16.40;;;2.88;;
47009;SDS011;59230;54.164;-3.124;2022-08-19T13:35:59;13.85;;;3.28;;
47009;SDS011;59230;54.164;-3.124;2022-08-19T13:38:26;13.15;;;2.05;;
47009;SDS011;59230;54.164;-3.124;2022-08-19T13:40:52;19.40;;;3.20;;
47009;SDS011;59230;54.164;-3.124;2022-08-19T13:43:19;11.48;;;2.13;;
47009;SDS011;59230;54.164;-3.124;2022-08-19T13:45:53;17.58;;;2.58;;
47009;SDS011;59230;54.164;-3.124;2022-08-19T13:48:20;16.38;;;2.70;;
47009;SDS011;59230;54.164;-3.124;2022-08-19T13:50:47;19.50;;;3.10;;
47009;SDS011;59230;54.164;-3.124;2022-08-19T13:53:13;15.25;;;2.40;;
47009;SDS011;59230;54.164;-3.124;2022-08-19T13:55:40;12.55;;;1.95;;
47009;SDS011;59230;54.164;-3.124;2022-08-19T13:58:07;14.93;;;2.55;;
47009;SDS011;59230;54.164;-3.124;2022-08-19T14:00:34;14.55;;;2.72;;
47009;SDS011;59230;54.164;-3.124;2022-08-19T14:03:01;10.95;;;2.22;;
47009;SDS011;59230;54.164;-3.124;2022-08-19T14:05:28;15.05;;;2.50;;
47009;SDS011;59230;54.164;-3.124;2022-08-19T14:07:55;10.73;;;1.95;;
47009;SDS011;59230;54.164;-3.124;2022-08-19T14:10:21;7.38;;;1.95;;
47009;SDS011;59230;54.164;-3.124;2022-08-19T14:12:48;8.05;;;1.67;;
47009;SDS011;59230;54.164;-3.124;2022-08-19T14:15:14;12.25;;;2.35;;
47009;SDS011;59230;54.164;-3.124;2022-08-19T14:17:41;11.07;;;1.95;;
47009;SDS011;59230;54.164;-3.124;2022-08-19T14:20:08;16.10;;;1.95;;
47009;SDS011;59230;54.164;-3.124;2022-08-19T14:22:37;11.63;;;2.13;;
47009;SDS011;59230;54.164;-3.124;2022-08-19T14:25:05;11.27;;;1.90;;
47009;SDS011;59230;54.164;-3.124;2022-08-19T14:27:33;13.27;;;2.10;;
47009;SDS011;59230;54.164;-3.124;2022-08-19T14:30:06;10.05;;;2.08;;
47009;SDS011;59230;54.164;-3.124;2022-08-19T14:32:33;13.07;;;2.25;;
47009;SDS011;59230;54.164;-3.124;2022-08-19T14:34:59;14.00;;;1.88;;
47009;SDS011;59230;54.164;-3.124;2022-08-19T14:37:24;15.25;;;1.80;;
47009;SDS011;59230;54.164;-3.124;2022-08-19T14:39:50;9.70;;;1.90;;
47009;SDS011;59230;54.164;-3.124;2022-08-19T14:42:15;8.70;;;2.28;;